sensor_id;sensor_type;location;lat;lon;timestamp;pressure;altitude;pressure_sealevel;temperature;humidity
23172;BME280;11754;42.664;23.594;2023-05-20T00:01:45;95706.66;;;12.87;84.68
23172;BME280;11754;42.664;23.594;2023-05-20T00:04:11;95700.25;;;12.81;85.46
23172;BME280;11754;42.664;23.594;2023-05-20T00:06:36;95693.34;;;12.72;85.61
23172;BME280;11754;42.664;23.594;2023-05-20T00:09:02;95698.81;;;12.70;86.29
23172;BME280;11754;42.664;23.594;2023-05-20T00:11:28;95693.94;;;12.59;86.38
23172;BME280;11754;42.664;23.594;2023-05-20T00:13:53;95702.50;;;12.61;86.36
23172;BME280;11754;42.664;23.594;2023-05-20T00:16:19;95696.25;;;12.54;86.04
23172;BME280;11754;42.664;23.594;2023-05-20T00:18:44;95704.22;;;12.46;86.24
23172;BME280;11754;42.664;23.594;2023-05-20T00:21:09;95693.22;;;12.26;86.49
23172;BME280;11754;42.664;23.594;2023-05-20T00:23:35;95699.03;;;12.21;86.86
23172;BME280;11754;42.664;23.594;2023-05-20T00:26:00;95695.41;;;12.14;87.11
23172;BME280;11754;42.664;23.594;2023-05-20T00:28:26;95694.13;;;12.10;87.44
23172;BME280;11754;42.664;23.594;2023-05-20T00:30:51;95673.31;;;12.07;87.48
23172;BME280;11754;42.664;23.594;2023-05-20T00:33:16;95675.28;;;12.13;87.52
23172;BME280;11754;42.664;23.594;2023-05-20T00:42:27;95682.09;;;11.99;87.92
23172;BME280;11754;42.664;23.594;2023-05-20T00:44:53;95674.69;;;11.95;88.14
23172;BME280;11754;42.664;23.594;2023-05-20T00:47:26;95688.91;;;11.94;88.25
23172;BME280;11754;42.664;23.594;2023-05-20T00:49:52;95695.47;;;11.98;88.40
23172;BME280;11754;42.664;23.594;2023-05-20T01:06:01;95677.69;;;11.84;87.49
23172;BME280;11754;42.664;23.594;2023-05-20T01:08:26;95677.97;;;11.81;87.33
23172;BME280;11754;42.664;23.594;2023-05-20T01:11:05;95682.28;;;11.73;87.69
23172;BME280;11754;42.664;23.594;2023-05-20T01:13:38;95682.78;;;11.61;88.81
23172;BME280;11754;42.664;23.594;2023-05-20T01:39:43;95687.94;;;11.21;89.78
23172;BME280;11754;42.664;23.594;2023-05-20T01:42:09;95691.06;;;11.17;89.89
23172;BME280;11754;42.664;23.594;2023-05-20T01:44:36;95685.16;;;11.15;90.18
23172;BME280;11754;42.664;23.594;2023-05-20T01:47:01;95679.53;;;11.10;90.72
23172;BME280;11754;42.664;23.594;2023-05-20T01:49:27;95688.25;;;11.10;91.25
23172;BME280;11754;42.664;23.594;2023-05-20T01:58:44;95674.75;;;10.97;90.51
23172;BME280;11754;42.664;23.594;2023-05-20T02:01:10;95680.00;;;10.89;89.82
23172;BME280;11754;42.664;23.594;2023-05-20T02:03:35;95684.94;;;10.83;89.51
23172;BME280;11754;42.664;23.594;2023-05-20T02:06:00;95678.34;;;10.79;89.63
23172;BME280;11754;42.664;23.594;2023-05-20T02:08:26;95668.44;;;10.81;89.79
23172;BME280;11754;42.664;23.594;2023-05-20T02:10:51;95671.44;;;10.78;89.39
23172;BME280;11754;42.664;23.594;2023-05-20T02:13:16;95673.72;;;10.81;89.01
23172;BME280;11754;42.664;23.594;2023-05-20T02:15:41;95671.44;;;10.78;88.42
23172;BME280;11754;42.664;23.594;2023-05-20T02:18:07;95665.78;;;10.81;87.75
23172;BME280;11754;42.664;23.594;2023-05-20T02:20:35;95672.06;;;10.80;87.68
23172;BME280;11754;42.664;23.594;2023-05-20T02:23:01;95674.03;;;10.70;88.66
23172;BME280;11754;42.664;23.594;2023-05-20T02:25:30;95662.47;;;10.63;89.12
23172;BME280;11754;42.664;23.594;2023-05-20T02:27:55;95660.81;;;10.62;88.96
23172;BME280;11754;42.664;23.594;2023-05-20T02:30:21;95664.91;;;10.56;88.88
23172;BME280;11754;42.664;23.594;2023-05-20T02:32:46;95653.53;;;10.48;88.67
23172;BME280;11754;42.664;23.594;2023-05-20T02:52:07;95668.91;;;10.18;89.77
23172;BME280;11754;42.664;23.594;2023-05-20T02:54:33;95668.91;;;10.18;90.08
23172;BME280;11754;42.664;23.594;2023-05-20T02:56:58;95681.91;;;10.20;90.76
23172;BME280;11754;42.664;23.594;2023-05-20T02:59:24;95691.81;;;10.18;91.24
23172;BME280;11754;42.664;23.594;2023-05-20T03:19:02;95683.09;;;10.17;92.06
23172;BME280;11754;42.664;23.594;2023-05-20T03:21:28;95700.88;;;10.23;91.91
23172;BME280;11754;42.664;23.594;2023-05-20T03:23:53;95696.31;;;10.25;91.34
23172;BME280;11754;42.664;23.594;2023-05-20T03:26:18;95699.59;;;10.27;91.33
23172;BME280;11754;42.664;23.594;2023-05-20T03:28:44;95699.47;;;10.29;91.04
23172;BME280;11754;42.664;23.594;2023-05-20T03:31:09;95685.78;;;10.25;91.24
23172;BME280;11754;42.664;23.594;2023-05-20T03:40:36;95692.75;;;10.43;90.88
23172;BME280;11754;42.664;23.594;2023-05-20T03:43:02;95698.03;;;10.43;91.03
23172;BME280;11754;42.664;23.594;2023-05-20T03:45:27;95700.19;;;10.47;91.16
23172;BME280;11754;42.664;23.594;2023-05-20T03:47:52;95709.94;;;10.55;91.03
23172;BME280;11754;42.664;23.594;2023-05-20T03:50:18;95704.84;;;10.70;91.24
23172;BME280;11754;42.664;23.594;2023-05-20T03:52:43;95700.59;;;10.77;90.89
23172;BME280;11754;42.664;23.594;2023-05-20T03:55:09;95697.81;;;10.95;89.54
23172;BME280;11754;42.664;23.594;2023-05-20T03:57:34;95704.41;;;10.99;88.76
23172;BME280;11754;42.664;23.594;2023-05-20T04:00:01;95704.09;;;11.10;87.75
23172;BME280;11754;42.664;23.594;2023-05-20T04:02:26;95696.50;;;11.07;87.24
23172;BME280;11754;42.664;23.594;2023-05-20T04:25:40;95726.56;;;11.39;85.73
23172;BME280;11754;42.664;23.594;2023-05-20T04:28:06;95721.94;;;11.49;85.62
23172;BME280;11754;42.664;23.594;2023-05-20T04:30:31;95720.28;;;11.56;85.26
23172;BME280;11754;42.664;23.594;2023-05-20T04:32:58;95717.31;;;11.59;84.87
23172;BME280;11754;42.664;23.594;2023-05-20T04:35:23;95715.69;;;11.58;85.25
23172;BME280;11754;42.664;23.594;2023-05-20T04:37:50;95724.41;;;11.67;85.24
23172;BME280;11754;42.664;23.594;2023-05-20T04:40:18;95729.53;;;11.76;85.26
23172;BME280;11754;42.664;23.594;2023-05-20T04:42:43;95730.66;;;11.82;84.89
23172;BME280;11754;42.664;23.594;2023-05-20T04:45:10;95726.88;;;11.85;84.93
23172;BME280;11754;42.664;23.594;2023-05-20T04:47:45;95737.13;;;11.96;85.26
23172;BME280;11754;42.664;23.594;2023-05-20T04:50:11;95733.97;;;12.09;84.84
23172;BME280;11754;42.664;23.594;2023-05-20T04:52:38;95733.75;;;12.18;84.79
23172;BME280;11754;42.664;23.594;2023-05-20T04:55:07;95733.75;;;12.18;84.70
23172;BME280;11754;42.664;23.594;2023-05-20T04:57:36;95732.09;;;12.17;85.06
23172;BME280;11754;42.664;23.594;2023-05-20T05:00:06;95726.47;;;12.20;85.13
23172;BME280;11754;42.664;23.594;2023-05-20T05:02:33;95724.13;;;12.25;85.36
23172;BME280;11754;42.664;23.594;2023-05-20T05:11:42;95712.84;;;12.48;84.57
23172;BME280;11754;42.664;23.594;2023-05-20T05:14:08;95718.38;;;12.69;84.50
23172;BME280;11754;42.664;23.594;2023-05-20T05:16:33;95712.19;;;12.77;85.14
23172;BME280;11754;42.664;23.594;2023-05-20T05:18:58;95714.44;;;12.88;85.06
23172;BME280;11754;42.664;23.594;2023-05-20T05:21:24;95717.22;;;12.95;84.72
23172;BME280;11754;42.664;23.594;2023-05-20T05:23:49;95718.88;;;12.96;84.30
23172;BME280;11754;42.664;23.594;2023-05-20T05:26:14;95724.69;;;13.14;84.29
23172;BME280;11754;42.664;23.594;2023-05-20T05:28:58;95736.59;;;13.18;84.76
23172;BME280;11754;42.664;23.594;2023-05-20T05:31:23;95724.97;;;13.28;84.30
23172;BME280;11754;42.664;23.594;2023-05-20T05:33:49;95726.84;;;13.42;83.66
23172;BME280;11754;42.664;23.594;2023-05-20T05:36:15;95721.72;;;13.63;83.48
23172;BME280;11754;42.664;23.594;2023-05-20T05:38:41;95725.50;;;13.84;82.77
23172;BME280;11754;42.664;23.594;2023-05-20T05:41:06;95718.84;;;14.03;82.38
23172;BME280;11754;42.664;23.594;2023-05-20T05:43:32;95714.56;;;14.16;81.40
23172;BME280;11754;42.664;23.594;2023-05-20T05:45:57;95712.44;;;14.41;81.11
23172;BME280;11754;42.664;23.594;2023-05-20T05:48:23;95705.59;;;14.47;80.63
23172;BME280;11754;42.664;23.594;2023-05-20T05:50:48;95703.75;;;14.62;80.65
23172;BME280;11754;42.664;23.594;2023-05-20T05:53:13;95700.91;;;14.79;79.99
23172;BME280;11754;42.664;23.594;2023-05-20T05:55:39;95706.34;;;14.92;79.40
23172;BME280;11754;42.664;23.594;2023-05-20T05:58:04;95708.50;;;15.03;79.26
23172;BME280;11754;42.664;23.594;2023-05-20T06:00:30;95715.38;;;15.12;79.05
23172;BME280;11754;42.664;23.594;2023-05-20T06:02:55;95708.22;;;15.13;78.59
23172;BME280;11754;42.664;23.594;2023-05-20T06:05:20;95710.94;;;15.20;78.74
23172;BME280;11754;42.664;23.594;2023-05-20T06:07:46;95704.53;;;15.35;78.35
23172;BME280;11754;42.664;23.594;2023-05-20T06:10:11;95695.00;;;15.41;78.28
23172;BME280;11754;42.664;23.594;2023-05-20T06:12:36;95691.09;;;15.37;77.78
23172;BME280;11754;42.664;23.594;2023-05-20T06:15:02;95686.75;;;15.57;77.83
23172;BME280;11754;42.664;23.594;2023-05-20T06:17:28;95682.28;;;15.58;77.31
23172;BME280;11754;42.664;23.594;2023-05-20T06:19:53;95689.94;;;15.68;77.44
23172;BME280;11754;42.664;23.594;2023-05-20T06:22:19;95681.13;;;15.95;77.04
23172;BME280;11754;42.664;23.594;2023-05-20T06:24:45;95688.19;;;16.09;76.54
23172;BME280;11754;42.664;23.594;2023-05-20T06:27:10;95687.84;;;16.19;77.09
23172;BME280;11754;42.664;23.594;2023-05-20T06:29:36;95694.50;;;16.43;76.97
23172;BME280;11754;42.664;23.594;2023-05-20T06:32:01;95692.78;;;16.64;76.49
23172;BME280;11754;42.664;23.594;2023-05-20T06:34:26;95697.38;;;16.83;75.80
23172;BME280;11754;42.664;23.594;2023-05-20T06:36:52;95696.00;;;17.00;74.61
23172;BME280;11754;42.664;23.594;2023-05-20T06:39:17;95698.72;;;17.20;73.87
23172;BME280;11754;42.664;23.594;2023-05-20T06:41:43;95684.81;;;17.32;72.15
23172;BME280;11754;42.664;23.594;2023-05-20T06:44:08;95675.56;;;17.47;71.30
23172;BME280;11754;42.664;23.594;2023-05-20T06:46:33;95659.78;;;17.46;69.72
23172;BME280;11754;42.664;23.594;2023-05-20T06:48:59;95656.94;;;17.61;68.69
23172;BME280;11754;42.664;23.594;2023-05-20T06:51:26;95653.63;;;17.52;67.80
23172;BME280;11754;42.664;23.594;2023-05-20T06:53:51;95649.72;;;17.54;68.17
23172;BME280;11754;42.664;23.594;2023-05-20T06:56:17;95661.44;;;17.53;66.12
23172;BME280;11754;42.664;23.594;2023-05-20T06:58:42;95660.59;;;17.60;66.50
23172;BME280;11754;42.664;23.594;2023-05-20T07:01:07;95665.75;;;17.68;65.86
23172;BME280;11754;42.664;23.594;2023-05-20T07:03:33;95655.69;;;17.70;63.61
23172;BME280;11754;42.664;23.594;2023-05-20T07:05:58;95656.53;;;17.77;62.37
23172;BME280;11754;42.664;23.594;2023-05-20T07:08:24;95655.47;;;17.91;64.16
23172;BME280;11754;42.664;23.594;2023-05-20T07:10:49;95652.38;;;18.08;63.25
23172;BME280;11754;42.664;23.594;2023-05-20T07:13:14;95649.06;;;18.25;62.31
23172;BME280;11754;42.664;23.594;2023-05-20T07:15:40;95654.03;;;18.09;59.35
23172;BME280;11754;42.664;23.594;2023-05-20T07:18:05;95661.00;;;18.10;59.52
23172;BME280;11754;42.664;23.594;2023-05-20T07:20:31;95665.50;;;18.16;60.04
23172;BME280;11754;42.664;23.594;2023-05-20T07:22:56;95661.34;;;18.46;59.84
23172;BME280;11754;42.664;23.594;2023-05-20T07:25:21;95651.44;;;18.54;59.81
23172;BME280;11754;42.664;23.594;2023-05-20T07:27:47;95648.94;;;18.59;59.89
23172;BME280;11754;42.664;23.594;2023-05-20T07:30:12;95656.31;;;18.63;59.57
23172;BME280;11754;42.664;23.594;2023-05-20T07:32:38;95646.84;;;18.74;60.95
23172;BME280;11754;42.664;23.594;2023-05-20T07:35:04;95649.94;;;19.09;60.68
23172;BME280;11754;42.664;23.594;2023-05-20T07:37:29;95656.97;;;19.35;60.09
23172;BME280;11754;42.664;23.594;2023-05-20T07:39:55;95646.00;;;19.43;57.94
23172;BME280;11754;42.664;23.594;2023-05-20T07:42:20;95649.03;;;19.54;57.19
23172;BME280;11754;42.664;23.594;2023-05-20T07:44:45;95653.91;;;19.88;57.05
23172;BME280;11754;42.664;23.594;2023-05-20T07:47:12;95651.69;;;20.04;57.48
23172;BME280;11754;42.664;23.594;2023-05-20T07:49:38;95659.75;;;20.22;57.02
23172;BME280;11754;42.664;23.594;2023-05-20T07:52:03;95648.78;;;20.30;56.06
23172;BME280;11754;42.664;23.594;2023-05-20T07:54:29;95651.22;;;20.32;54.48
23172;BME280;11754;42.664;23.594;2023-05-20T07:56:54;95651.00;;;20.52;54.75
23172;BME280;11754;42.664;23.594;2023-05-20T07:59:20;95637.31;;;20.60;53.62
23172;BME280;11754;42.664;23.594;2023-05-20T08:01:45;95642.06;;;20.58;54.50
23172;BME280;11754;42.664;23.594;2023-05-20T08:04:11;95629.13;;;20.55;52.42
23172;BME280;11754;42.664;23.594;2023-05-20T08:06:36;95636.41;;;20.84;52.11
23172;BME280;11754;42.664;23.594;2023-05-20T08:09:03;95638.31;;;20.96;52.50
23172;BME280;11754;42.664;23.594;2023-05-20T08:11:28;95640.84;;;21.21;52.41
23172;BME280;11754;42.664;23.594;2023-05-20T08:13:54;95646.28;;;21.44;51.45
23172;BME280;11754;42.664;23.594;2023-05-20T08:16:22;95633.34;;;21.53;51.58
23172;BME280;11754;42.664;23.594;2023-05-20T08:18:48;95624.97;;;21.61;51.07
23172;BME280;11754;42.664;23.594;2023-05-20T08:21:13;95632.88;;;21.56;50.50
23172;BME280;11754;42.664;23.594;2023-05-20T08:23:39;95631.88;;;21.80;50.15
23172;BME280;11754;42.664;23.594;2023-05-20T08:26:05;95621.03;;;21.75;49.28
23172;BME280;11754;42.664;23.594;2023-05-20T08:28:30;95618.81;;;21.72;49.71
23172;BME280;11754;42.664;23.594;2023-05-20T08:30:56;95618.69;;;21.91;49.81
23172;BME280;11754;42.664;23.594;2023-05-20T08:33:24;95610.41;;;22.04;48.83
23172;BME280;11754;42.664;23.594;2023-05-20T08:35:49;95623.84;;;22.16;46.32
23172;BME280;11754;42.664;23.594;2023-05-20T08:38:15;95616.00;;;22.26;46.31
23172;BME280;11754;42.664;23.594;2023-05-20T08:40:40;95613.31;;;22.78;43.95
23172;BME280;11754;42.664;23.594;2023-05-20T08:43:06;95605.56;;;22.93;43.40
23172;BME280;11754;42.664;23.594;2023-05-20T08:45:33;95607.91;;;22.78;44.12
23172;BME280;11754;42.664;23.594;2023-05-20T08:48:01;95607.31;;;22.88;44.31
23172;BME280;11754;42.664;23.594;2023-05-20T08:50:29;95606.47;;;22.99;43.73
23172;BME280;11754;42.664;23.594;2023-05-20T08:52:54;95607.88;;;23.18;43.89
23172;BME280;11754;42.664;23.594;2023-05-20T08:55:36;95611.84;;;23.61;43.15
23172;BME280;11754;42.664;23.594;2023-05-20T08:58:03;95607.59;;;23.65;42.24
23172;BME280;11754;42.664;23.594;2023-05-20T09:00:28;95618.00;;;23.73;40.85
23172;BME280;11754;42.664;23.594;2023-05-20T09:02:55;95610.91;;;23.84;41.17
23172;BME280;11754;42.664;23.594;2023-05-20T09:05:21;95606.19;;;23.74;41.57
23172;BME280;11754;42.664;23.594;2023-05-20T09:07:47;95608.13;;;23.96;42.03
23172;BME280;11754;42.664;23.594;2023-05-20T09:10:12;95599.59;;;24.04;41.69
23172;BME280;11754;42.664;23.594;2023-05-20T09:12:38;95593.22;;;24.10;41.08
23172;BME280;11754;42.664;23.594;2023-05-20T09:15:04;95597.09;;;24.19;39.84
23172;BME280;11754;42.664;23.594;2023-05-20T09:17:31;95590.38;;;24.39;39.55
23172;BME280;11754;42.664;23.594;2023-05-20T09:19:56;95590.00;;;24.52;39.40
23172;BME280;11754;42.664;23.594;2023-05-20T09:22:25;95589.53;;;24.55;39.55
23172;BME280;11754;42.664;23.594;2023-05-20T09:24:51;95576.00;;;24.77;38.12
23172;BME280;11754;42.664;23.594;2023-05-20T09:27:18;95575.94;;;24.94;38.79
23172;BME280;11754;42.664;23.594;2023-05-20T09:29:46;95576.22;;;25.20;38.13
23172;BME280;11754;42.664;23.594;2023-05-20T09:32:12;95565.38;;;25.14;36.56
23172;BME280;11754;42.664;23.594;2023-05-20T09:34:38;95569.84;;;25.31;37.23
23172;BME280;11754;42.664;23.594;2023-05-20T09:37:06;95564.41;;;25.95;37.50
23172;BME280;11754;42.664;23.594;2023-05-20T09:39:38;95565.94;;;25.81;36.82
23172;BME280;11754;42.664;23.594;2023-05-20T09:42:11;95552.91;;;25.78;35.47
23172;BME280;11754;42.664;23.594;2023-05-20T09:44:40;95550.34;;;25.93;35.51
23172;BME280;11754;42.664;23.594;2023-05-20T09:47:06;95550.66;;;25.97;35.37
23172;BME280;11754;42.664;23.594;2023-05-20T09:49:34;95536.97;;;26.19;34.57
23172;BME280;11754;42.664;23.594;2023-05-20T09:52:02;95533.41;;;26.76;34.68
23172;BME280;11754;42.664;23.594;2023-05-20T09:54:28;95536.22;;;27.12;33.01
23172;BME280;11754;42.664;23.594;2023-05-20T09:56:56;95528.09;;;27.93;31.98
23172;BME280;11754;42.664;23.594;2023-05-20T09:59:23;95520.13;;;28.92;30.29
23172;BME280;11754;42.664;23.594;2023-05-20T10:01:49;95524.91;;;29.79;29.14
23172;BME280;11754;42.664;23.594;2023-05-20T10:07:43;95513.75;;;32.26;25.47
23172;BME280;11754;42.664;23.594;2023-05-20T10:10:44;95503.56;;;34.88;23.00
23172;BME280;11754;42.664;23.594;2023-05-20T10:22:56;95484.38;;;35.57;21.53
23172;BME280;11754;42.664;23.594;2023-05-20T10:25:26;95491.66;;;35.27;21.62
23172;BME280;11754;42.664;23.594;2023-05-20T10:28:11;95483.59;;;36.42;20.35
23172;BME280;11754;42.664;23.594;2023-05-20T10:30:37;95475.75;;;37.99;19.62
23172;BME280;11754;42.664;23.594;2023-05-20T10:33:04;95475.56;;;38.66;18.89
23172;BME280;11754;42.664;23.594;2023-05-20T10:35:30;95476.03;;;38.80;17.98
23172;BME280;11754;42.664;23.594;2023-05-20T10:38:07;95478.50;;;40.10;17.53
23172;BME280;11754;42.664;23.594;2023-05-20T10:40:34;95464.53;;;38.78;17.54
23172;BME280;11754;42.664;23.594;2023-05-20T10:43:11;95468.22;;;39.23;17.73
23172;BME280;11754;42.664;23.594;2023-05-20T10:45:50;95464.00;;;39.97;16.93
23172;BME280;11754;42.664;23.594;2023-05-20T10:50:56;95455.59;;;41.47;16.38
23172;BME280;11754;42.664;23.594;2023-05-20T10:53:23;95450.41;;;42.30;15.98
23172;BME280;11754;42.664;23.594;2023-05-20T10:55:50;95453.41;;;42.67;15.31
23172;BME280;11754;42.664;23.594;2023-05-20T10:58:16;95442.78;;;41.39;16.00
23172;BME280;11754;42.664;23.594;2023-05-20T11:00:43;95435.06;;;41.28;15.57
23172;BME280;11754;42.664;23.594;2023-05-20T11:03:09;95442.13;;;43.13;15.06
23172;BME280;11754;42.664;23.594;2023-05-20T11:05:38;95432.44;;;41.55;15.98
23172;BME280;11754;42.664;23.594;2023-05-20T11:08:06;95438.38;;;38.47;17.74
23172;BME280;11754;42.664;23.594;2023-05-20T11:10:36;95432.72;;;38.68;18.44
23172;BME280;11754;42.664;23.594;2023-05-20T11:13:02;95438.13;;;39.74;17.22
23172;BME280;11754;42.664;23.594;2023-05-20T11:15:30;95433.75;;;38.88;17.66
23172;BME280;11754;42.664;23.594;2023-05-20T11:17:59;95431.69;;;39.26;17.48
23172;BME280;11754;42.664;23.594;2023-05-20T11:20:25;95424.44;;;40.41;16.33
23172;BME280;11754;42.664;23.594;2023-05-20T11:22:51;95428.22;;;41.42;15.63
23172;BME280;11754;42.664;23.594;2023-05-20T11:25:17;95427.28;;;42.22;14.74
23172;BME280;11754;42.664;23.594;2023-05-20T11:27:44;95425.63;;;41.91;15.28
23172;BME280;11754;42.664;23.594;2023-05-20T11:30:10;95414.06;;;42.12;14.82
23172;BME280;11754;42.664;23.594;2023-05-20T11:32:37;95403.25;;;42.53;13.81
23172;BME280;11754;42.664;23.594;2023-05-20T11:35:02;95415.13;;;39.54;16.37
23172;BME280;11754;42.664;23.594;2023-05-20T11:37:29;95416.91;;;39.62;16.48
23172;BME280;11754;42.664;23.594;2023-05-20T11:40:05;95408.00;;;39.69;16.91
23172;BME280;11754;42.664;23.594;2023-05-20T11:42:32;95410.91;;;36.48;18.87
23172;BME280;11754;42.664;23.594;2023-05-20T11:44:59;95408.63;;;34.92;20.77
23172;BME280;11754;42.664;23.594;2023-05-20T11:47:25;95397.81;;;37.29;18.79
23172;BME280;11754;42.664;23.594;2023-05-20T11:49:55;95398.25;;;37.64;17.66
23172;BME280;11754;42.664;23.594;2023-05-20T11:52:20;95409.31;;;36.18;19.68
23172;BME280;11754;42.664;23.594;2023-05-20T11:54:52;95416.97;;;34.52;21.37
23172;BME280;11754;42.664;23.594;2023-05-20T11:57:18;95426.13;;;32.42;23.77
23172;BME280;11754;42.664;23.594;2023-05-20T11:59:45;95444.75;;;29.77;26.99
23172;BME280;11754;42.664;23.594;2023-05-20T12:02:10;95440.16;;;28.20;27.54
23172;BME280;11754;42.664;23.594;2023-05-20T12:04:36;95458.19;;;26.68;30.21
23172;BME280;11754;42.664;23.594;2023-05-20T12:07:01;95469.75;;;25.80;32.25
23172;BME280;11754;42.664;23.594;2023-05-20T12:09:28;95465.69;;;24.76;34.09
23172;BME280;11754;42.664;23.594;2023-05-20T12:11:53;95477.31;;;24.49;34.83
23172;BME280;11754;42.664;23.594;2023-05-20T12:14:20;95468.66;;;24.47;35.30
23172;BME280;11754;42.664;23.594;2023-05-20T12:16:46;95471.22;;;24.15;36.16
23172;BME280;11754;42.664;23.594;2023-05-20T12:19:11;95476.28;;;23.89;36.70
23172;BME280;11754;42.664;23.594;2023-05-20T12:21:37;95473.69;;;23.39;37.42
23172;BME280;11754;42.664;23.594;2023-05-20T12:24:02;95482.25;;;23.02;37.64
23172;BME280;11754;42.664;23.594;2023-05-20T12:26:30;95469.41;;;22.75;38.29
23172;BME280;11754;42.664;23.594;2023-05-20T12:28:57;95474.28;;;22.78;38.17
23172;BME280;11754;42.664;23.594;2023-05-20T12:31:24;95471.41;;;22.97;38.25
23172;BME280;11754;42.664;23.594;2023-05-20T12:33:50;95476.38;;;23.22;37.56
23172;BME280;11754;42.664;23.594;2023-05-20T12:36:15;95466.00;;;24.79;35.00
23172;BME280;11754;42.664;23.594;2023-05-20T12:38:53;95452.59;;;28.26;29.87
23172;BME280;11754;42.664;23.594;2023-05-20T12:41:18;95457.09;;;27.86;30.83
23172;BME280;11754;42.664;23.594;2023-05-20T12:43:43;95447.91;;;27.67;30.95
23172;BME280;11754;42.664;23.594;2023-05-20T12:46:09;95445.78;;;27.43;31.19
23172;BME280;11754;42.664;23.594;2023-05-20T12:48:34;95444.13;;;27.78;30.91
23172;BME280;11754;42.664;23.594;2023-05-20T12:51:00;95438.31;;;28.05;30.38
23172;BME280;11754;42.664;23.594;2023-05-20T12:53:26;95438.41;;;27.74;30.74
23172;BME280;11754;42.664;23.594;2023-05-20T12:55:51;95438.19;;;26.99;31.69
23172;BME280;11754;42.664;23.594;2023-05-20T12:58:35;95430.03;;;26.53;32.01
23172;BME280;11754;42.664;23.594;2023-05-20T13:01:01;95416.50;;;26.48;32.56
23172;BME280;11754;42.664;23.594;2023-05-20T13:03:26;95420.22;;;26.32;32.56
23172;BME280;11754;42.664;23.594;2023-05-20T13:05:51;95413.03;;;26.73;32.62
23172;BME280;11754;42.664;23.594;2023-05-20T13:08:17;95403.84;;;26.95;31.72
23172;BME280;11754;42.664;23.594;2023-05-20T13:10:42;95397.06;;;27.28;31.84
23172;BME280;11754;42.664;23.594;2023-05-20T13:13:08;95397.06;;;26.97;31.37
23172;BME280;11754;42.664;23.594;2023-05-20T13:15:33;95409.50;;;26.78;31.68
23172;BME280;11754;42.664;23.594;2023-05-20T13:17:59;95407.91;;;26.87;32.41
23172;BME280;11754;42.664;23.594;2023-05-20T13:20:25;95395.69;;;26.90;32.74
23172;BME280;11754;42.664;23.594;2023-05-20T13:22:51;95405.69;;;26.53;35.26
23172;BME280;11754;42.664;23.594;2023-05-20T13:25:16;95406.75;;;25.27;37.62
23172;BME280;11754;42.664;23.594;2023-05-20T13:27:42;95408.13;;;24.60;39.22
23172;BME280;11754;42.664;23.594;2023-05-20T13:30:07;95395.59;;;24.81;39.60
23172;BME280;11754;42.664;23.594;2023-05-20T13:32:33;95402.03;;;25.07;40.29
23172;BME280;11754;42.664;23.594;2023-05-20T13:34:58;95399.19;;;24.91;40.16
23172;BME280;11754;42.664;23.594;2023-05-20T13:37:24;95411.38;;;24.99;40.37
23172;BME280;11754;42.664;23.594;2023-05-20T13:39:50;95403.00;;;24.09;41.28
23172;BME280;11754;42.664;23.594;2023-05-20T13:42:15;95394.56;;;23.62;41.74
23172;BME280;11754;42.664;23.594;2023-05-20T13:44:41;95405.41;;;23.06;43.45
23172;BME280;11754;42.664;23.594;2023-05-20T13:47:06;95400.16;;;22.83;44.23
23172;BME280;11754;42.664;23.594;2023-05-20T13:49:31;95405.06;;;22.69;45.82
23172;BME280;11754;42.664;23.594;2023-05-20T13:51:57;95401.31;;;22.24;48.29
23172;BME280;11754;42.664;23.594;2023-05-20T13:54:22;95412.44;;;22.16;48.09
23172;BME280;11754;42.664;23.594;2023-05-20T13:56:48;95413.56;;;21.92;50.20
23172;BME280;11754;42.664;23.594;2023-05-20T13:59:13;95411.84;;;21.86;49.95
23172;BME280;11754;42.664;23.594;2023-05-20T14:01:38;95411.16;;;21.78;50.44
23172;BME280;11754;42.664;23.594;2023-05-20T14:04:09;95414.81;;;21.49;50.72
23172;BME280;11754;42.664;23.594;2023-05-20T14:10:05;95383.81;;;21.06;52.55
23172;BME280;11754;42.664;23.594;2023-05-20T14:12:33;95381.59;;;21.26;51.75
23172;BME280;11754;42.664;23.594;2023-05-20T14:14:58;95372.75;;;21.49;50.18
23172;BME280;11754;42.664;23.594;2023-05-20T14:17:23;95384.69;;;21.99;49.61
23172;BME280;11754;42.664;23.594;2023-05-20T14:19:49;95378.19;;;22.23;48.36
23172;BME280;11754;42.664;23.594;2023-05-20T14:25:36;95370.50;;;22.44;47.83
23172;BME280;11754;42.664;23.594;2023-05-20T14:28:02;95374.22;;;22.26;49.06
23172;BME280;11754;42.664;23.594;2023-05-20T14:30:28;95365.69;;;22.29;49.19
23172;BME280;11754;42.664;23.594;2023-05-20T14:32:53;95384.88;;;22.09;46.64
23172;BME280;11754;42.664;23.594;2023-05-20T14:38:27;95378.16;;;21.66;47.79
23172;BME280;11754;42.664;23.594;2023-05-20T14:40:52;95370.38;;;21.53;48.79
23172;BME280;11754;42.664;23.594;2023-05-20T14:43:18;95369.50;;;21.35;49.85
23172;BME280;11754;42.664;23.594;2023-05-20T14:45:43;95378.56;;;21.23;50.11
23172;BME280;11754;42.664;23.594;2023-05-20T15:05:37;95360.38;;;21.13;51.34
23172;BME280;11754;42.664;23.594;2023-05-20T15:08:02;95362.34;;;21.29;51.27
23172;BME280;11754;42.664;23.594;2023-05-20T15:10:28;95371.44;;;21.52;50.47
23172;BME280;11754;42.664;23.594;2023-05-20T15:12:53;95373.25;;;21.63;50.49
23172;BME280;11754;42.664;23.594;2023-05-20T15:15:19;95362.66;;;21.68;49.82
23172;BME280;11754;42.664;23.594;2023-05-20T15:21:19;95369.25;;;22.06;48.39
23172;BME280;11754;42.664;23.594;2023-05-20T15:23:45;95372.34;;;22.26;48.34
23172;BME280;11754;42.664;23.594;2023-05-20T15:26:11;95358.44;;;22.46;48.08
23172;BME280;11754;42.664;23.594;2023-05-20T15:28:37;95362.50;;;22.83;47.47
23172;BME280;11754;42.664;23.594;2023-05-20T15:31:03;95362.19;;;23.13;46.77
23172;BME280;11754;42.664;23.594;2023-05-20T15:33:28;95351.75;;;23.16;46.68